createdAt,value
2023-01-19T00:01:55.480Z,1.90
2023-01-19T00:11:57.752Z,1.99
2023-01-19T00:22:00.037Z,1.60
2023-01-19T00:32:03.855Z,1.96
2023-01-19T00:42:25.688Z,1.87
2023-01-19T00:52:27.960Z,1.87
2023-01-19T01:02:30.389Z,2.07
2023-01-19T01:12:32.573Z,2.01
2023-01-19T01:22:34.871Z,1.77
2023-01-19T01:32:37.096Z,2.60
2023-01-19T01:42:40.620Z,2.37
2023-01-19T01:53:08.138Z,2.09
2023-01-19T02:03:10.863Z,2.24
2023-01-19T02:13:20.029Z,2.29
2023-01-19T02:23:38.057Z,2.07
2023-01-19T02:33:40.322Z,2.35
2023-01-19T02:43:43.038Z,2.33
2023-01-19T02:53:53.347Z,2.67
2023-01-19T03:04:13.432Z,2.35
2023-01-19T03:14:21.306Z,2.31
2023-01-19T03:24:25.319Z,1.70
2023-01-19T03:34:28.566Z,2.13
2023-01-19T03:44:32.561Z,2.33
2023-01-19T03:54:34.793Z,1.88
2023-01-19T04:04:36.857Z,1.94
2023-01-19T04:14:40.234Z,1.86
2023-01-19T04:24:42.330Z,2.02
2023-01-19T04:34:44.489Z,1.91
2023-01-19T04:44:46.814Z,2.25
2023-01-19T04:54:49.080Z,2.25
2023-01-19T05:04:51.795Z,1.47
2023-01-19T05:14:54.049Z,0.94
2023-01-19T05:24:56.164Z,1.29
2023-01-19T05:34:58.413Z,1.66
2023-01-19T05:45:00.734Z,1.39
2023-01-19T05:55:03.007Z,1.86
2023-01-19T06:05:05.712Z,1.75
2023-01-19T06:15:08.266Z,1.40
2023-01-19T06:25:10.948Z,1.45
2023-01-19T06:35:13.832Z,1.45
2023-01-19T06:45:16.567Z,1.50
2023-01-19T06:55:18.885Z,1.40
2023-01-19T07:05:22.168Z,1.64
2023-01-19T07:15:24.697Z,2.04
2023-01-19T07:25:27.209Z,1.29
2023-01-19T07:35:29.747Z,1.93
2023-01-19T07:45:31.820Z,1.71
2023-01-19T07:55:34.047Z,2.22
2023-01-19T08:05:37.105Z,2.14
2023-01-19T08:15:39.249Z,1.99
2023-01-19T08:25:44.313Z,2.08
2023-01-19T08:35:52.392Z,2.10
2023-01-19T08:45:56.484Z,2.09
2023-01-19T08:56:02.287Z,2.61
2023-01-19T09:06:08.218Z,2.25
2023-01-19T09:16:12.820Z,2.52
2023-01-19T09:26:15.258Z,2.53
2023-01-19T09:36:17.604Z,2.31
2023-01-19T09:46:24.390Z,2.62
2023-01-19T09:56:28.192Z,2.92
2023-01-19T10:06:30.644Z,2.86
2023-01-19T10:16:52.527Z,2.96
2023-01-19T10:26:56.307Z,2.22
2023-01-19T10:37:04.876Z,3.02
2023-01-19T10:47:16.912Z,2.71
2023-01-19T10:57:26.326Z,2.76
2023-01-19T11:07:33.513Z,2.72
2023-01-19T11:17:35.781Z,2.64
2023-01-19T11:27:38.297Z,2.90
2023-01-19T11:37:43.002Z,2.91
2023-01-19T11:47:49.417Z,3.06
2023-01-19T11:57:54.520Z,3.14
2023-01-19T12:07:59.385Z,3.63
2023-01-19T12:18:03.415Z,2.94
2023-01-19T12:28:11.131Z,3.47
2023-01-19T12:38:44.475Z,3.38
2023-01-19T12:48:46.998Z,3.39
2023-01-19T12:58:49.875Z,3.67
2023-01-19T13:08:59.849Z,3.54
2023-01-19T13:19:15.913Z,3.01
2023-01-19T13:29:33.854Z,3.04
2023-01-19T13:39:38.141Z,3.89
2023-01-19T13:49:44.803Z,3.20
2023-01-19T14:00:20.904Z,3.76
2023-01-19T14:10:23.200Z,3.14
2023-01-19T14:20:30.443Z,3.17
2023-01-19T14:30:35.040Z,3.33
2023-01-19T14:40:38.387Z,3.64
2023-01-19T14:50:42.824Z,3.67
2023-01-19T15:00:49.569Z,3.01
2023-01-19T15:10:51.845Z,3.39
2023-01-19T15:21:02.960Z,4.09
2023-01-19T15:31:05.775Z,2.92
2023-01-19T15:41:24.207Z,3.51
2023-01-19T15:51:27.544Z,2.99
2023-01-19T16:01:35.238Z,3.76
2023-01-19T16:11:38.569Z,3.72
2023-01-19T16:21:43.047Z,3.92
2023-01-19T16:31:45.810Z,3.44
2023-01-19T16:41:49.390Z,3.07
2023-01-19T16:51:53.737Z,2.74
2023-01-19T17:01:57.224Z,3.24
2023-01-19T17:12:04.743Z,3.42
2023-01-19T17:22:10.133Z,3.32
2023-01-19T17:32:12.841Z,3.46
2023-01-19T17:42:15.272Z,2.88
2023-01-19T17:52:18.502Z,3.19
2023-01-19T18:02:24.549Z,3.05
2023-01-19T18:12:26.791Z,2.75
2023-01-19T18:22:28.954Z,2.74
2023-01-19T18:32:31.077Z,3.12
2023-01-19T18:42:33.945Z,3.15
2023-01-19T18:52:36.316Z,3.20
2023-01-19T19:02:38.586Z,3.13
2023-01-19T19:12:40.814Z,3.50
2023-01-19T19:22:43.260Z,2.67
2023-01-19T19:32:52.715Z,2.99
2023-01-19T19:42:56.980Z,3.36
2023-01-19T19:53:00.497Z,3.48
2023-01-19T20:03:02.625Z,3.22
2023-01-19T20:13:07.589Z,3.25
2023-01-19T20:23:11.196Z,3.42
2023-01-19T20:33:13.480Z,3.59
2023-01-19T20:43:15.568Z,3.43
2023-01-19T20:53:18.850Z,3.23
2023-01-19T21:03:20.939Z,3.44
2023-01-19T21:13:24.608Z,3.75
2023-01-19T21:23:44.695Z,3.08
2023-01-19T21:33:49.135Z,2.71
2023-01-19T21:43:52.547Z,3.32
2023-01-19T21:53:59.664Z,3.08
2023-01-19T22:04:02.058Z,3.87
2023-01-19T22:14:04.320Z,3.77
2023-01-19T22:24:08.590Z,3.80
2023-01-19T22:34:11.016Z,3.77
2023-01-19T22:44:20.413Z,3.62
2023-01-19T22:54:23.306Z,3.64
2023-01-19T23:04:25.425Z,3.88
2023-01-19T23:14:29.331Z,4.41
2023-01-19T23:24:31.467Z,2.80
2023-01-19T23:34:33.803Z,3.36
2023-01-19T23:44:36.091Z,3.46
2023-01-19T23:54:38.169Z,3.82
